WetterOnline ( https://www.wetteronline.de )

Wetter aktuell Simmern

Aktuelles Wetter: Andernach (75m)

6-stündlich | Neueste Meldungen
Ortszeit Temperatur Wetter
Di, 17.05. 2:00 13.2° C Nebel
Mo, 16.05. 20:00 18.6° C bedeckt
Mo, 16.05. 14:00 24.5° C bewölkt
Mo, 16.05. 8:00 15.0° C bedeckt
Mo, 16.05. 2:00 13.0° C wolkenlos
So, 15.05. 20:00 24.1° C leicht bewölkt
So, 15.05. 14:00 25.5° C leicht bewölkt
So, 15.05. 8:00 11.8° C leicht bewölkt
Ortszeit Temperatur Wetter
Di, 17.05. 6:30 11.7° C bewölkt
Di, 17.05. 6:20 11.7° C bewölkt
Di, 17.05. 6:10 11.3° C bewölkt
Di, 17.05. 6:00 10.9° C wolkig
Di, 17.05. 5:50 10.9° C wolkig
Di, 17.05. 5:40 10.7° C bedeckt
Di, 17.05. 5:30 11.0° C wolkig
Di, 17.05. 5:00 10.9° C leicht bewölkt
Di, 17.05. 4:30 11.2° C wolkenlos
Di, 17.05. 4:00 11.8° C leicht bewölkt
Di, 17.05. 3:30 12.6° C bedeckt
Ortszeit Relative Feuchte Sichtweite
Di, 17.05. 2:00 100% 100 m
Mo, 16.05. 20:00 91% 19 km
Mo, 16.05. 14:00 63% 35 km
Mo, 16.05. 8:00 78% 30 km
Mo, 16.05. 2:00 80% 45 km
So, 15.05. 20:00 36% 40 km
So, 15.05. 14:00 30% 45 km
So, 15.05. 8:00 78% 45 km
Ortszeit Relative Feuchte Sichtweite
Di, 17.05. 6:30 98% 17 km
Di, 17.05. 6:20 98% -
Di, 17.05. 6:10 98% -
Di, 17.05. 6:00 99% 14 km
Di, 17.05. 5:50 99% -
Di, 17.05. 5:40 99% -
Di, 17.05. 5:30 99% 15 km
Di, 17.05. 5:00 98% 11 km
Di, 17.05. 4:30 99% 11 km
Di, 17.05. 4:00 98% 8 km
Di, 17.05. 3:30 99% 11 km
Ortszeit Niederschlagsmenge Niederschlagsart
Di, 17.05. 2:00 0.1 l/m2 in 6 Std. -
Mo, 16.05. 20:00 12 l/m2 in 12 Std. Regen
Mo, 16.05. 14:00 2 l/m2 in 6 Std. Regen, Niederschlag
Mo, 16.05. 8:00 0.1 l/m2 in 12 Std. Regen
Mo, 16.05. 2:00 0.0 l/m2 in 6 Std. -
So, 15.05. 20:00 0.0 l/m2 in 12 Std. -
So, 15.05. 14:00 0.0 l/m2 in 6 Std. -
So, 15.05. 8:00 0.0 l/m2 in 12 Std. -
Ortszeit Niederschlagsmenge Niederschlagsart
Di, 17.05. 6:30 0.0 l/m2 in 1 Std. -
Di, 17.05. 6:20 keine Meldung -
Di, 17.05. 6:10 keine Meldung -
Di, 17.05. 6:00 0.0 l/m2 in 1 Std. -
Di, 17.05. 5:50 keine Meldung -
Di, 17.05. 5:40 keine Meldung -
Di, 17.05. 5:30 0.0 l/m2 in 1 Std. -
Di, 17.05. 5:00 0.0 l/m2 in 1 Std. -
Di, 17.05. 4:30 0.0 l/m2 in 1 Std. -
Di, 17.05. 4:00 0.0 l/m2 in 1 Std. -
Di, 17.05. 3:30 0.0 l/m2 in 1 Std. -
Ortszeit Stärke Spitze Richtung
km/h Bft. km/h Grad Sektor
Di, 17.05. 2:00 4 1 7 170° S
Mo, 16.05. 20:00 4 1 47 160° S
Mo, 16.05. 14:00 7 2 36 60° NO
Mo, 16.05. 8:00 4 1 14 210° SW
Mo, 16.05. 2:00 7 2 18 190° S
So, 15.05. 20:00 13 3 28 90° O
So, 15.05. 14:00 11 2 25 100° O
So, 15.05. 8:00 4 1 11 140° SO
Ortszeit Stärke Spitze Richtung
km/h Bft. km/h Grad Sektor
Di, 17.05. 6:30 6 1 9 200° S
Di, 17.05. 6:20 6 1 - 200° S
Di, 17.05. 6:10 6 1 - 190° S
Di, 17.05. 6:00 7 2 7 180° S
Di, 17.05. 5:50 7 2 - 180° S
Di, 17.05. 5:40 6 1 - 170° S
Di, 17.05. 5:30 7 2 7 190° S
Di, 17.05. 5:00 7 2 11 200° S
Di, 17.05. 4:30 7 2 11 200° S
Di, 17.05. 4:00 6 1 9 200° S
Di, 17.05. 3:30 6 1 7 180° S
Ortszeit Untergrenze Bedeckung Gattung
total tief tief mittel hoch
Di, 17.05. 2:00 <30 m 8/8 0/8 - - -
Mo, 16.05. 20:00 3300 m 8/8 8/8 - - -
Mo, 16.05. 14:00 1500 m 7/8 7/8 - - -
Mo, 16.05. 8:00 3300 m 8/8 8/8 - - -
Mo, 16.05. 2:00 - 0/8 0/8 - - -
So, 15.05. 20:00 6900 m 3/8 3/8 - - -
So, 15.05. 14:00 7500 m 7/8 0/8 - - -
So, 15.05. 8:00 9000 m 3/8 0/8 - - -
Ortszeit Bedeckungsgrad in Achtel und Wolkenuntergrenze
Di, 17.05. 6:30 7(150m) 7(6300m)
Di, 17.05. 6:20 7(150m) 7(6300m)
Di, 17.05. 6:10 7
Di, 17.05. 6:00 1(150m) 3(6300m) 7(7200m)
Di, 17.05. 5:50 1(150m) 3(6300m) 7(7200m)
Di, 17.05. 5:40 8
Di, 17.05. 5:30 4(60m) 7(7800m)
Di, 17.05. 5:00 2(30m)
Di, 17.05. 4:30 keine Wolken
Di, 17.05. 4:00 4(210m)
Di, 17.05. 3:30 8(180m)
Ortszeit Luftdruck NN (hPa) Tendenz (hPa in 3 Std.)
Di, 17.05. 2:00 1021 + 0,6
Mo, 16.05. 20:00 1019 + 0,8
Mo, 16.05. 14:00 1015 - 0,8
Mo, 16.05. 8:00 1015 + 0,2
Mo, 16.05. 2:00 1016 - 0,3
So, 15.05. 20:00 1015 - 1,5
So, 15.05. 14:00 1018 - 1,7
So, 15.05. 8:00 1021 + 0,3
Ortszeit Luftdruck NN (hPa) Tendenz (hPa in 3 Std.)
Di, 17.05. 6:30 1022 + 0,9
Di, 17.05. 6:20 1022 keine Meldung
Di, 17.05. 6:10 1022 keine Meldung
Di, 17.05. 6:00 1022 + 0,9
Di, 17.05. 5:50 1022 keine Meldung
Di, 17.05. 5:40 1022 keine Meldung
Di, 17.05. 5:30 1022 + 0,5
Di, 17.05. 5:00 1022 + 0,4
Di, 17.05. 4:30 1021 + 0,1
Di, 17.05. 4:00 1021 + 0,2
Di, 17.05. 3:30 1021 + 0,3
Ortszeit Schneehöhe (cm)
Di, 17.05. 2:00 0
Mo, 16.05. 20:00 0
Mo, 16.05. 14:00 0
Mo, 16.05. 8:00 0
Mo, 16.05. 2:00 0
So, 15.05. 20:00 0
So, 15.05. 14:00 0
So, 15.05. 8:00 0
Ortszeit Schneehöhe (cm)
Di, 17.05. 6:30 0
Di, 17.05. 6:20 0
Di, 17.05. 6:10 0
Di, 17.05. 6:00 0
Di, 17.05. 5:50 0
Di, 17.05. 5:40 0
Di, 17.05. 5:30 0
Di, 17.05. 5:00 0
Di, 17.05. 4:30 0
Di, 17.05. 4:00 0
Di, 17.05. 3:30 0
Link zu dieser Seite / Seite empfehlen

Das Wetter in ...